Time;durP1;ratioP1;P1;durP2;ratioP2;P2;SDS_P1;SDS_P2;PMS_P1;PMS_P2;Temp;Humidity;BMP_temperature;BMP_pressure;BME280_temperature;BME280_humidity;BME280_pressure;Samples;Min_cycle;Max_cycle;Signal;HPM_P1;HPM_P2
2023/08/11 00:01:39;;;;;;;15.73;14.13;;;15.80;99.90;;;;;;7368289;19;20090;-59
2023/08/11 00:04:06;;;;;;;15.55;14.05;;;15.80;99.90;;;;;;7368882;19;20021;-59
2023/08/11 00:06:32;;;;;;;17.98;16.35;;;15.70;99.90;;;;;;7373379;19;20022;-59
2023/08/11 00:08:59;;;;;;;17.17;15.48;;;15.70;99.90;;;;;;7373448;19;20494;-59
2023/08/11 00:11:28;;;;;;;17.27;15.68;;;15.70;99.90;;;;;;7370319;19;20049;-59
2023/08/11 00:13:57;;;;;;;19.58;17.23;;;15.60;99.90;;;;;;7371296;19;20011;-59
2023/08/11 00:16:24;;;;;;;17.58;15.98;;;15.60;99.90;;;;;;7370845;19;20029;-60
2023/08/11 00:18:50;;;;;;;17.30;15.60;;;15.50;99.90;;;;;;7371776;19;20027;-59
2023/08/11 00:21:17;;;;;;;18.52;16.52;;;15.50;99.90;;;;;;7375183;19;20474;-59
2023/08/11 00:23:43;;;;;;;18.08;16.05;;;15.40;99.90;;;;;;7366863;19;20031;-59
2023/08/11 00:26:10;;;;;;;19.77;17.83;;;15.40;99.90;;;;;;7370623;19;20098;-59
2023/08/11 00:28:37;;;;;;;20.23;16.58;;;15.30;99.90;;;;;;7370346;19;20046;-59
2023/08/11 00:31:05;;;;;;;18.05;16.23;;;15.40;99.90;;;;;;7370022;19;20018;-59
2023/08/11 00:33:31;;;;;;;18.95;16.95;;;15.30;99.90;;;;;;7368981;19;20018;-59
2023/08/11 00:35:57;;;;;;;20.80;18.73;;;15.30;99.90;;;;;;7370638;19;20025;-59
2023/08/11 00:38:34;;;;;;;19.42;17.67;;;15.30;99.90;;;;;;7371247;19;20018;-59
2023/08/11 00:41:01;;;;;;;20.17;18.15;;;15.30;99.90;;;;;;7376428;19;20384;-59
2023/08/11 00:43:28;;;;;;;19.55;17.73;;;15.20;99.90;;;;;;7380640;19;20021;-59
2023/08/11 00:45:54;;;;;;;20.15;17.77;;;15.20;99.90;;;;;;7375487;19;20388;-60
2023/08/11 00:48:20;;;;;;;19.50;17.40;;;15.20;99.90;;;;;;7378407;19;20128;-59
2023/08/11 00:50:48;;;;;;;19.88;17.88;;;15.10;99.90;;;;;;7377008;19;20024;-60
2023/08/11 00:53:14;;;;;;;20.02;18.05;;;15.00;99.90;;;;;;7374659;19;20010;-61
2023/08/11 00:55:40;;;;;;;19.35;17.35;;;15.00;99.90;;;;;;7372163;19;20036;-60
2023/08/11 00:58:07;;;;;;;18.88;16.92;;;15.00;99.90;;;;;;7378246;19;20039;-60
2023/08/11 01:00:36;;;;;;;20.35;18.42;;;14.90;99.90;;;;;;7378657;19;20010;-60
2023/08/11 01:03:02;;;;;;;21.27;19.17;;;14.90;99.90;;;;;;7374734;19;20042;-61
2023/08/11 01:05:35;;;;;;;22.05;19.67;;;14.80;99.90;;;;;;7376659;19;20014;-60
2023/08/11 01:08:20;;;;;;;22.15;19.92;;;14.90;99.90;;;;;;7374821;19;20723;-60
2023/08/11 01:11:07;;;;;;;21.27;19.15;;;14.90;99.90;;;;;;7375330;19;20022;-62
2023/08/11 01:13:39;;;;;;;20.88;18.88;;;14.80;99.90;;;;;;7375758;19;20049;-60
2023/08/11 01:16:08;;;;;;;21.45;19.08;;;14.80;99.90;;;;;;7371746;19;20595;-60
2023/08/11 01:18:34;;;;;;;22.75;20.52;;;14.80;99.90;;;;;;7373305;19;20014;-60
2023/08/11 01:21:10;;;;;;;22.50;20.33;;;14.70;99.90;;;;;;7373322;19;20026;-61
2023/08/11 01:23:37;;;;;;;22.55;20.25;;;14.80;99.90;;;;;;7372731;19;20098;-61
2023/08/11 01:26:04;;;;;;;23.92;21.48;;;14.80;99.90;;;;;;7375172;19;20027;-60
2023/08/11 01:28:34;;;;;;;22.92;20.73;;;14.70;99.90;;;;;;7373079;19;20488;-60
2023/08/11 01:31:00;;;;;;;21.75;19.55;;;14.70;99.90;;;;;;7372672;19;20490;-61
2023/08/11 01:33:27;;;;;;;23.50;21.33;;;14.70;99.90;;;;;;7374391;19;20015;-60
2023/08/11 01:35:53;;;;;;;22.67;20.58;;;14.70;99.90;;;;;;7367775;19;20046;-60
2023/08/11 01:38:19;;;;;;;24.38;21.77;;;14.60;99.90;;;;;;7373138;19;20580;-60
2023/08/11 01:40:45;;;;;;;23.52;21.30;;;14.70;99.90;;;;;;7374768;19;20482;-60
2023/08/11 01:43:15;;;;;;;22.92;20.83;;;14.70;99.90;;;;;;7367671;19;20046;-60
2023/08/11 01:45:43;;;;;;;23.70;21.40;;;14.70;99.90;;;;;;7372069;19;20390;-60
2023/08/11 01:48:11;;;;;;;24.65;22.27;;;14.60;99.90;;;;;;7375118;19;20506;-60
2023/08/11 01:50:37;;;;;;;23.52;21.13;;;14.60;99.90;;;;;;7370429;19;20017;-61
2023/08/11 01:53:04;;;;;;;25.20;22.77;;;14.60;99.90;;;;;;7369204;19;20042;-60
2023/08/11 01:55:35;;;;;;;26.02;23.42;;;14.60;99.90;;;;;;7367287;19;20022;-61
2023/08/11 01:58:02;;;;;;;25.85;23.35;;;14.60;99.90;;;;;;7370452;19;20019;-60
2023/08/11 02:00:31;;;;;;;25.42;23.08;;;14.60;99.90;;;;;;7372950;19;20365;-61
2023/08/11 02:02:58;;;;;;;22.88;20.77;;;14.60;99.90;;;;;;7372817;19;20011;-60
2023/08/11 02:05:24;;;;;;;25.90;23.30;;;14.50;99.90;;;;;;7372995;19;20047;-60
2023/08/11 02:07:52;;;;;;;23.75;21.45;;;14.50;99.90;;;;;;7372897;19;20089;-61
2023/08/11 02:10:18;;;;;;;24.63;22.15;;;14.50;99.90;;;;;;7373561;19;21480;-60
2023/08/11 02:12:44;;;;;;;24.17;21.67;;;14.50;99.90;;;;;;7369648;19;20022;-60
2023/08/11 02:15:10;;;;;;;20.08;18.08;;;14.50;99.90;;;;;;7367665;19;20517;-60
2023/08/11 02:17:37;;;;;;;23.33;20.90;;;14.40;99.90;;;;;;7366602;19;20030;-60
2023/08/11 02:20:21;;;;;;;22.80;20.73;;;14.40;99.90;;;;;;7373075;19;20904;-60
2023/08/11 02:22:52;;;;;;;22.92;20.77;;;14.50;99.90;;;;;;7370703;19;20022;-60
2023/08/11 02:25:18;;;;;;;25.42;22.98;;;14.50;99.90;;;;;;7364561;19;20022;-60
2023/08/11 02:27:45;;;;;;;24.35;21.88;;;14.50;99.90;;;;;;7369968;19;20056;-60
2023/08/11 02:30:12;;;;;;;23.30;21.13;;;14.50;99.90;;;;;;7371831;19;20422;-60
2023/08/11 02:32:39;;;;;;;22.13;20.10;;;14.40;99.90;;;;;;7371687;19;20501;-60
2023/08/11 02:35:06;;;;;;;22.42;20.33;;;14.40;99.90;;;;;;7371198;19;20372;-60
2023/08/11 02:37:33;;;;;;;23.13;20.92;;;14.40;99.90;;;;;;7371441;19;20010;-63
2023/08/11 02:39:59;;;;;;;23.45;21.23;;;14.40;99.90;;;;;;7370486;19;20490;-64
2023/08/11 02:42:54;;;;;;;32.28;23.02;;;14.40;99.90;;;;;;7370105;19;20015;-60
2023/08/11 02:45:20;;;;;;;21.92;19.92;;;14.30;99.90;;;;;;7371300;19;20022;-60
2023/08/11 02:47:47;;;;;;;23.30;21.05;;;14.30;99.90;;;;;;7366241;19;20018;-60
2023/08/11 02:50:13;;;;;;;24.30;22.00;;;14.30;99.90;;;;;;7368384;19;20535;-60
2023/08/11 02:52:42;;;;;;;24.00;21.80;;;14.30;99.90;;;;;;7368019;19;20057;-65
2023/08/11 02:55:11;;;;;;;23.90;21.60;;;14.30;99.90;;;;;;7368135;19;20014;-60
2023/08/11 02:57:37;;;;;;;21.75;19.65;;;14.30;99.90;;;;;;7372159;19;20033;-60
2023/08/11 03:00:14;;;;;;;20.70;18.60;;;14.30;99.90;;;;;;7369035;19;20018;-60
2023/08/11 03:02:42;;;;;;;21.52;19.50;;;14.30;99.90;;;;;;7368732;19;20025;-61
2023/08/11 03:05:09;;;;;;;21.55;19.45;;;14.30;99.90;;;;;;7371165;19;20015;-60
2023/08/11 03:07:38;;;;;;;20.05;18.13;;;14.30;99.90;;;;;;7372709;19;20026;-62
2023/08/11 03:10:06;;;;;;;20.27;18.40;;;14.30;99.90;;;;;;7369191;19;20508;-61
2023/08/11 03:12:33;;;;;;;19.95;18.05;;;14.30;99.90;;;;;;7367075;19;20018;-61
2023/08/11 03:15:00;;;;;;;21.42;19.20;;;14.30;99.90;;;;;;7366925;19;20375;-61
2023/08/11 03:17:27;;;;;;;20.17;18.25;;;14.20;99.90;;;;;;7368566;19;20878;-61
2023/08/11 03:19:53;;;;;;;20.83;18.83;;;14.20;99.90;;;;;;7369745;19;20014;-61
2023/08/11 03:22:20;;;;;;;20.85;18.75;;;14.20;99.90;;;;;;7370676;19;20011;-61
2023/08/11 03:24:47;;;;;;;19.73;17.73;;;14.20;99.90;;;;;;7366676;19;20100;-60
2023/08/11 03:27:15;;;;;;;19.95;18.05;;;14.10;99.90;;;;;;7368091;19;20501;-65
2023/08/11 03:29:41;;;;;;;18.67;16.83;;;14.10;99.90;;;;;;7370633;19;20013;-61
2023/08/11 03:32:08;;;;;;;19.40;17.45;;;14.10;99.90;;;;;;7369608;19;20375;-60
2023/08/11 03:34:36;;;;;;;20.48;18.58;;;14.10;99.90;;;;;;7369692;19;20045;-61
2023/08/11 03:37:02;;;;;;;19.35;17.55;;;14.10;99.90;;;;;;7369874;19;20015;-61
2023/08/11 03:39:30;;;;;;;18.60;16.90;;;14.00;99.90;;;;;;7371246;19;20044;-61
2023/08/11 03:41:58;;;;;;;18.95;17.25;;;14.10;99.90;;;;;;7369027;19;20014;-60
2023/08/11 03:44:24;;;;;;;21.27;18.08;;;14.10;99.90;;;;;;7369126;19;20105;-61
2023/08/11 03:46:51;;;;;;;18.63;16.75;;;14.00;99.90;;;;;;7367500;19;20019;-61
2023/08/11 03:49:18;;;;;;;19.00;17.17;;;14.00;99.90;;;;;;7368439;19;20023;-60
2023/08/11 03:51:44;;;;;;;18.35;16.48;;;14.00;99.90;;;;;;7370327;19;20476;-60
2023/08/11 03:54:10;;;;;;;19.70;17.77;;;14.00;99.90;;;;;;7368009;19;20030;-60
2023/08/11 03:56:38;;;;;;;19.35;17.45;;;14.00;99.90;;;;;;7368040;19;20026;-60
2023/08/11 03:59:04;;;;;;;18.17;16.38;;;14.00;99.90;;;;;;7366828;19;20085;-60
2023/08/11 04:01:31;;;;;;;18.17;16.48;;;13.90;99.90;;;;;;7367749;19;20019;-60
2023/08/11 04:03:58;;;;;;;17.98;16.25;;;13.90;99.90;;;;;;7371214;19;20728;-60
2023/08/11 04:06:31;;;;;;;17.75;16.00;;;13.90;99.90;;;;;;7368166;19;20073;-60
2023/08/11 04:09:00;;;;;;;19.33;17.52;;;13.90;99.90;;;;;;7365701;19;20347;-60
2023/08/11 04:11:29;;;;;;;17.00;15.32;;;13.90;99.90;;;;;;7368815;19;20409;-60
2023/08/11 04:13:56;;;;;;;18.90;16.75;;;13.90;99.90;;;;;;7371452;19;20553;-61
2023/08/11 04:16:22;;;;;;;17.75;15.95;;;13.90;99.90;;;;;;7375821;19;20024;-61
2023/08/11 04:18:48;;;;;;;17.83;16.02;;;13.90;99.90;;;;;;7376452;19;20010;-60
2023/08/11 04:21:15;;;;;;;17.73;16.02;;;13.90;99.90;;;;;;7377858;19;20040;-60
2023/08/11 04:23:41;;;;;;;18.75;16.83;;;13.90;99.90;;;;;;7379972;19;20470;-61
2023/08/11 04:26:08;;;;;;;18.80;16.98;;;13.90;99.90;;;;;;7374304;19;20383;-60
2023/08/11 04:28:38;;;;;;;18.35;16.52;;;13.90;99.90;;;;;;7373164;19;20449;-61
2023/08/11 04:31:09;;;;;;;17.27;15.60;;;13.90;99.90;;;;;;7369851;19;20022;-60
2023/08/11 04:33:36;;;;;;;17.67;15.98;;;13.90;99.90;;;;;;7376544;19;20042;-60
2023/08/11 04:36:02;;;;;;;17.38;15.70;;;13.90;99.90;;;;;;7375009;19;20029;-60
2023/08/11 04:38:32;;;;;;;17.05;15.25;;;13.90;99.90;;;;;;7377589;19;20018;-60
2023/08/11 04:41:02;;;;;;;17.27;15.43;;;13.90;99.90;;;;;;7371262;19;20018;-60
2023/08/11 04:43:29;;;;;;;18.40;16.67;;;14.00;99.90;;;;;;7375067;19;20018;-60
2023/08/11 04:45:56;;;;;;;17.92;16.20;;;14.00;99.90;;;;;;7373525;19;20020;-61
2023/08/11 04:48:22;;;;;;;19.13;17.08;;;14.00;99.90;;;;;;7373876;19;20356;-60
2023/08/11 04:50:52;;;;;;;19.92;16.92;;;14.00;99.90;;;;;;7369821;19;20052;-60
2023/08/11 04:53:18;;;;;;;20.10;18.15;;;14.10;99.90;;;;;;7371017;19;20025;-60
2023/08/11 04:55:45;;;;;;;18.70;16.83;;;14.10;99.90;;;;;;7371736;19;20454;-60
2023/08/11 04:58:14;;;;;;;19.90;17.88;;;14.20;99.90;;;;;;7370901;19;20018;-61
2023/08/11 05:00:40;;;;;;;20.38;18.20;;;14.30;99.90;;;;;;7374913;19;20402;-60
2023/08/11 05:03:06;;;;;;;17.38;15.77;;;14.40;99.90;;;;;;7374556;19;20022;-61
2023/08/11 05:05:33;;;;;;;18.77;16.77;;;14.50;99.90;;;;;;7373834;19;20490;-60
2023/08/11 05:08:00;;;;;;;17.27;15.50;;;14.50;99.90;;;;;;7371458;19;20022;-60
2023/08/11 05:10:26;;;;;;;17.85;15.70;;;14.60;99.90;;;;;;7376259;19;20663;-60
2023/08/11 05:12:52;;;;;;;15.48;13.93;;;14.70;99.90;;;;;;7372113;19;20014;-63
2023/08/11 05:15:19;;;;;;;15.88;13.93;;;14.80;99.90;;;;;;7373562;19;20066;-60
2023/08/11 05:17:45;;;;;;;15.85;14.02;;;14.90;99.90;;;;;;7370898;19;20021;-60
2023/08/11 05:20:14;;;;;;;16.80;13.60;;;15.20;99.90;;;;;;7373091;19;20396;-60
2023/08/11 05:22:40;;;;;;;14.57;13.02;;;15.30;99.90;;;;;;7372957;19;20018;-60
2023/08/11 05:25:07;;;;;;;12.90;11.45;;;15.40;99.90;;;;;;7370130;19;20367;-60
2023/08/11 05:27:33;;;;;;;12.52;11.20;;;15.70;99.90;;;;;;7376515;19;20022;-60
2023/08/11 05:30:00;;;;;;;13.35;11.00;;;15.90;99.90;;;;;;7373908;19;20510;-62
2023/08/11 05:32:27;;;;;;;11.25;10.15;;;16.10;99.90;;;;;;7370801;19;20014;-60
2023/08/11 05:34:55;;;;;;;10.23;9.13;;;16.40;99.90;;;;;;7371385;19;20015;-60
2023/08/11 05:37:24;;;;;;;10.13;9.13;;;16.50;99.90;;;;;;7368781;19;20049;-63
2023/08/11 05:39:54;;;;;;;9.63;8.27;;;16.70;99.90;;;;;;7374555;19;20078;-60
2023/08/11 05:42:20;;;;;;;10.23;9.07;;;16.90;99.90;;;;;;7371886;19;20074;-60
2023/08/11 05:44:47;;;;;;;9.20;8.07;;;17.00;99.90;;;;;;7373478;19;20022;-60
2023/08/11 05:47:13;;;;;;;8.85;7.97;;;17.10;99.90;;;;;;7369905;19;20018;-62
2023/08/11 05:49:39;;;;;;;9.57;7.60;;;17.30;99.90;;;;;;7372873;19;20054;-60
2023/08/11 05:52:06;;;;;;;9.57;7.57;;;17.40;99.90;;;;;;7373938;19;20081;-65
2023/08/11 05:54:32;;;;;;;9.18;7.43;;;17.50;99.90;;;;;;7369186;19;20572;-60
2023/08/11 05:56:58;;;;;;;8.07;7.28;;;17.60;99.90;;;;;;7371238;19;20018;-60
2023/08/11 05:59:26;;;;;;;8.30;6.68;;;17.70;99.90;;;;;;7368677;19;20567;-61
2023/08/11 06:01:52;;;;;;;9.27;7.22;;;17.80;99.90;;;;;;7369801;19;20029;-61
2023/08/11 06:04:18;;;;;;;9.52;6.88;;;17.90;99.90;;;;;;7367276;19;20503;-61
2023/08/11 06:06:45;;;;;;;11.68;7.32;;;18.00;99.90;;;;;;7369973;19;20749;-61
2023/08/11 06:09:11;;;;;;;9.07;7.05;;;18.20;99.90;;;;;;7367099;19;20128;-60
2023/08/11 06:11:37;;;;;;;10.20;6.55;;;18.30;99.90;;;;;;7372663;19;20470;-60
2023/08/11 06:14:03;;;;;;;7.95;6.93;;;18.40;99.90;;;;;;7368939;19;20022;-61
2023/08/11 06:16:30;;;;;;;10.25;6.47;;;18.50;99.90;;;;;;7372424;19;20490;-61
2023/08/11 06:18:56;;;;;;;8.57;6.75;;;18.60;99.90;;;;;;7365878;19;20019;-60
2023/08/11 06:21:23;;;;;;;8.98;7.00;;;18.80;99.90;;;;;;7372672;19;20485;-60
2023/08/11 06:23:50;;;;;;;7.72;6.00;;;19.00;99.90;;;;;;7367457;19;20019;-61
2023/08/11 06:26:16;;;;;;;10.73;7.68;;;19.10;99.90;;;;;;7370856;19;20482;-61
2023/08/11 06:28:42;;;;;;;9.30;6.43;;;19.30;99.90;;;;;;7367552;19;20061;-61
2023/08/11 06:31:11;;;;;;;6.35;5.65;;;19.50;99.90;;;;;;7370876;19;20355;-61
2023/08/11 06:33:37;;;;;;;6.18;5.47;;;19.60;99.90;;;;;;7372403;19;20026;-60
2023/08/11 06:36:04;;;;;;;8.23;5.30;;;19.80;99.90;;;;;;7368612;19;20022;-60
2023/08/11 06:38:32;;;;;;;7.20;5.22;;;19.90;99.90;;;;;;7369760;19;20101;-63
2023/08/11 06:40:58;;;;;;;7.90;5.85;;;20.10;99.90;;;;;;7369810;19;20972;-60
2023/08/11 06:43:24;;;;;;;7.38;5.40;;;20.30;99.90;;;;;;7370288;19;20014;-61
2023/08/11 06:45:50;;;;;;;8.75;5.47;;;20.50;99.90;;;;;;7369325;19;20018;-61
2023/08/11 06:48:17;;;;;;;6.68;5.97;;;20.70;99.90;;;;;;7370445;19;20057;-60
2023/08/11 06:50:43;;;;;;;7.30;5.75;;;20.80;99.90;;;;;;7368686;19;20387;-60
2023/08/11 06:53:09;;;;;;;8.05;4.70;;;20.90;99.90;;;;;;7366707;19;20478;-60
2023/08/11 06:55:35;;;;;;;6.53;5.93;;;21.10;99.90;;;;;;7366257;19;20046;-61
2023/08/11 06:58:01;;;;;;;7.28;5.65;;;21.30;99.90;;;;;;7368983;19;20295;-60
2023/08/11 07:00:28;;;;;;;6.95;5.25;;;21.50;99.90;;;;;;7373260;19;20664;-60
2023/08/11 07:02:57;;;;;;;12.43;9.75;;;21.60;99.90;;;;;;7369670;19;20018;-60
2023/08/11 07:05:23;;;;;;;7.20;4.85;;;21.80;99.90;;;;;;7373407;19;20490;-60
2023/08/11 07:07:50;;;;;;;6.43;5.32;;;21.80;99.90;;;;;;7372542;19;20557;-60
2023/08/11 07:10:16;;;;;;;7.22;5.25;;;22.10;99.90;;;;;;7370007;19;20109;-61
2023/08/11 07:12:42;;;;;;;4.93;4.43;;;22.40;99.90;;;;;;7368939;19;20022;-60
2023/08/11 07:15:28;;;;;;;6.88;4.85;;;22.50;99.90;;;;;;7369196;19;20026;-60
2023/08/11 07:17:55;;;;;;;8.68;5.60;;;22.80;99.90;;;;;;7365548;19;20022;-60
2023/08/11 07:20:21;;;;;;;13.73;5.13;;;23.00;99.90;;;;;;7364948;19;20408;-60
2023/08/11 07:22:47;;;;;;;7.38;5.22;;;23.00;99.90;;;;;;7371326;19;20019;-60
2023/08/11 07:25:14;;;;;;;5.25;4.28;;;23.30;99.90;;;;;;7369780;19;20015;-60
2023/08/11 07:27:40;;;;;;;9.13;4.78;;;23.40;99.90;;;;;;7366987;19;20022;-60
2023/08/11 07:30:07;;;;;;;5.30;3.72;;;23.80;99.90;;;;;;7367743;19;20477;-60
2023/08/11 07:32:33;;;;;;;6.50;4.65;;;24.00;99.90;;;;;;7366257;19;20498;-60
2023/08/11 07:34:59;;;;;;;5.68;4.22;;;24.30;99.90;;;;;;7370143;19;20405;-60
2023/08/11 07:37:25;;;;;;;7.78;3.65;;;24.40;99.90;;;;;;7367188;19;20395;-60
2023/08/11 07:39:52;;;;;;;5.68;3.50;;;24.30;99.90;;;;;;7367169;19;20613;-60
2023/08/11 07:42:18;;;;;;;5.57;3.38;;;24.50;99.90;;;;;;7364819;19;20544;-59
2023/08/11 07:44:44;;;;;;;7.13;4.85;;;24.70;99.90;;;;;;7369192;19;20394;-60
2023/08/11 07:47:11;;;;;;;6.13;3.55;;;25.00;99.90;;;;;;7368339;19;20025;-61
2023/08/11 07:49:37;;;;;;;4.72;3.15;;;25.00;99.90;;;;;;7364055;19;20434;-61
2023/08/11 07:52:03;;;;;;;10.18;8.75;;;25.20;99.90;;;;;;7371726;19;20010;-60
2023/08/11 07:54:30;;;;;;;4.13;3.30;;;25.50;99.90;;;;;;7370177;19;20379;-60
2023/08/11 07:56:59;;;;;;;7.20;3.00;;;25.60;99.90;;;;;;7370011;19;20050;-60
2023/08/11 07:59:25;;;;;;;5.78;3.63;;;25.90;99.90;;;;;;7368742;19;20019;-61
2023/08/11 08:01:52;;;;;;;5.10;3.65;;;26.00;99.90;;;;;;7368115;19;20031;-60
2023/08/11 08:04:18;;;;;;;8.15;4.55;;;25.80;99.90;;;;;;7364907;19;20018;-60
2023/08/11 08:06:45;;;;;;;13.93;10.77;;;26.00;99.90;;;;;;7369200;19;20022;-60
2023/08/11 08:09:15;;;;;;;14.77;13.25;;;25.90;99.90;;;;;;7367375;19;20692;-60
2023/08/11 08:11:43;;;;;;;5.43;3.35;;;25.80;99.90;;;;;;7370038;19;20015;-61
2023/08/11 08:14:10;;;;;;;3.35;2.70;;;25.90;99.90;;;;;;7366704;19;20391;-62
2023/08/11 08:16:38;;;;;;;8.25;5.25;;;26.10;99.90;;;;;;7368994;19;20331;-60
2023/08/11 08:19:05;;;;;;;4.28;2.80;;;26.40;99.90;;;;;;7367135;19;20029;-60
2023/08/11 08:21:32;;;;;;;4.88;3.33;;;26.60;99.90;;;;;;7368372;19;20560;-61
2023/08/11 08:24:04;;;;;;;8.32;5.72;;;26.70;99.90;;;;;;7370795;19;20512;-59
2023/08/11 08:26:31;;;;;;;5.93;3.00;;;26.70;99.90;;;;;;7372045;19;20518;-60
2023/08/11 08:28:57;;;;;;;6.38;4.88;;;26.90;99.90;;;;;;7369963;19;20050;-61
2023/08/11 08:31:24;;;;;;;7.75;6.78;;;26.80;99.90;;;;;;7369435;19;20576;-60
2023/08/11 08:33:51;;;;;;;6.80;3.60;;;26.70;99.90;;;;;;7370421;19;20015;-60
2023/08/11 08:36:17;;;;;;;5.03;2.92;;;26.90;99.90;;;;;;7368588;19;20042;-60
2023/08/11 08:38:44;;;;;;;6.85;2.50;;;26.90;99.90;;;;;;7370579;19;20018;-63
2023/08/11 08:41:10;;;;;;;5.15;3.88;;;27.20;99.90;;;;;;7365750;19;20018;-60
2023/08/11 08:43:37;;;;;;;11.10;6.60;;;27.20;99.90;;;;;;7370581;19;20675;-61
2023/08/11 08:46:04;;;;;;;5.43;2.38;;;27.00;99.90;;;;;;7367809;19;20102;-60
2023/08/11 08:48:41;;;;;;;7.47;3.90;;;27.50;99.90;;;;;;7368268;19;20092;-65
2023/08/11 08:51:08;;;;;;;9.40;4.85;;;27.50;99.90;;;;;;7365305;19;20018;-61
2023/08/11 08:53:34;;;;;;;6.05;3.15;;;27.70;99.90;;;;;;7368084;19;20025;-61
2023/08/11 08:56:04;;;;;;;5.63;3.40;;;27.80;99.90;;;;;;7367041;19;20014;-60
2023/08/11 08:58:31;;;;;;;4.22;2.80;;;28.10;99.90;;;;;;7369417;19;20439;-64
2023/08/11 09:01:01;;;;;;;30.23;27.23;;;28.20;99.00;;;;;;7370958;19;20042;-60
2023/08/11 09:03:30;;;;;;;5.47;3.25;;;28.80;98.10;;;;;;7377377;19;20467;-60
2023/08/11 09:06:00;;;;;;;4.72;3.40;;;28.90;98.40;;;;;;7374516;19;20391;-60
2023/08/11 09:08:26;;;;;;;7.72;3.40;;;28.90;96.90;;;;;;7376366;19;20014;-60
2023/08/11 09:10:52;;;;;;;4.82;2.95;;;29.10;97.40;;;;;;7372683;19;20478;-60
2023/08/11 09:13:20;;;;;;;4.68;3.15;;;28.90;96.20;;;;;;7371283;19;20085;-60
2023/08/11 09:15:46;;;;;;;5.88;2.85;;;28.90;95.10;;;;;;7371423;19;20027;-60
2023/08/11 09:18:19;;;;;;;7.63;3.03;;;29.10;96.60;;;;;;7374277;19;20014;-61
2023/08/11 09:20:49;;;;;;;20.15;18.10;;;29.40;93.80;;;;;;7373843;19;20596;-61
2023/08/11 09:23:18;;;;;;;7.50;3.25;;;29.50;93.10;;;;;;7373127;19;20029;-60
2023/08/11 09:25:49;;;;;;;5.00;2.47;;;29.40;91.90;;;;;;7375635;19;20018;-61
2023/08/11 09:28:15;;;;;;;18.02;13.20;;;29.50;92.10;;;;;;7367849;19;20026;-59
2023/08/11 09:30:42;;;;;;;19.70;17.67;;;29.70;91.90;;;;;;7371487;19;20034;-59
2023/08/11 09:33:12;;;;;;;23.05;20.40;;;29.90;92.50;;;;;;7371208;19;20041;-59
2023/08/11 09:35:40;;;;;;;10.25;8.80;;;30.20;93.10;;;;;;7373290;19;20624;-60
2023/08/11 09:38:08;;;;;;;40.65;36.65;;;30.60;92.40;;;;;;7370273;19;20014;-59
2023/08/11 09:40:35;;;;;;;17.02;15.23;;;30.50;90.50;;;;;;7367345;19;20425;-59
2023/08/11 09:43:01;;;;;;;7.35;5.10;;;30.70;90.30;;;;;;7368148;19;20019;-61
2023/08/11 09:45:30;;;;;;;10.43;7.28;;;30.90;85.80;;;;;;7367998;19;20025;-58
2023/08/11 09:47:56;;;;;;;8.38;5.80;;;30.80;85.40;;;;;;7372173;19;20019;-61
2023/08/11 09:50:27;;;;;;;33.97;30.92;;;31.00;84.40;;;;;;7372231;19;20011;-60
2023/08/11 09:52:55;;;;;;;7.00;4.60;;;31.20;86.20;;;;;;7371149;19;20432;-60
2023/08/11 09:55:23;;;;;;;13.07;10.93;;;31.10;82.50;;;;;;7366640;19;20857;-58
2023/08/11 09:57:49;;;;;;;5.47;3.60;;;31.30;81.10;;;;;;7365840;19;20035;-58
2023/08/11 10:00:16;;;;;;;11.90;9.65;;;30.90;77.30;;;;;;7368632;19;20051;-58
2023/08/11 10:03:19;;;;;;;30.50;27.48;;;31.30;76.60;;;;;;7366373;19;20363;-57
2023/08/11 10:05:50;;;;;;;10.52;8.05;;;31.30;77.50;;;;;;7361582;19;20131;-57
2023/08/11 10:08:21;;;;;;;17.92;16.20;;;31.20;76.30;;;;;;7365718;19;20018;-58
2023/08/11 10:10:50;;;;;;;6.75;4.70;;;31.40;76.90;;;;;;7370009;19;20363;-58
2023/08/11 10:13:26;;;;;;;9.10;6.22;;;31.60;76.40;;;;;;7360659;19;20022;-58
2023/08/11 10:15:54;;;;;;;14.43;9.55;;;31.60;76.30;;;;;;7366512;19;20021;-58
2023/08/11 10:18:21;;;;;;;6.45;4.10;;;31.80;75.40;;;;;;7368258;19;20018;-59
2023/08/11 10:20:51;;;;;;;7.32;3.78;;;31.80;75.70;;;;;;7372418;19;20478;-60
2023/08/11 10:23:18;;;;;;;8.27;6.68;;;32.00;73.40;;;;;;7365215;19;20022;-58
2023/08/11 10:25:46;;;;;;;7.40;3.75;;;32.00;72.10;;;;;;7365770;19;20026;-58
2023/08/11 10:28:14;;;;;;;7.68;4.15;;;32.00;71.10;;;;;;7362103;19;20023;-58
2023/08/11 10:30:40;;;;;;;5.40;2.67;;;32.00;69.70;;;;;;7367568;19;20498;-59
2023/08/11 10:33:07;;;;;;;5.15;2.83;;;32.00;71.60;;;;;;7367746;19;20025;-58
2023/08/11 10:35:46;;;;;;;6.03;2.70;;;32.10;71.10;;;;;;7361965;19;20458;-59
2023/08/11 10:38:12;;;;;;;4.72;3.22;;;32.40;69.60;;;;;;7369217;19;20026;-59
2023/08/11 10:40:40;;;;;;;5.95;2.60;;;32.60;72.00;;;;;;7370830;19;20029;-59
2023/08/11 10:43:06;;;;;;;17.25;13.55;;;32.60;70.30;;;;;;7362764;19;20033;-59
2023/08/11 10:45:35;;;;;;;12.73;10.88;;;32.70;69.70;;;;;;7363668;19;20012;-59
2023/08/11 10:48:09;;;;;;;6.00;2.88;;;32.30;67.10;;;;;;7369652;19;20014;-58
2023/08/11 10:50:39;;;;;;;10.25;9.13;;;32.60;68.00;;;;;;7362561;19;20034;-58
2023/08/11 10:53:20;;;;;;;6.70;3.63;;;32.70;68.00;;;;;;7364053;19;20616;-58
2023/08/11 10:56:02;;;;;;;8.40;5.70;;;32.70;67.20;;;;;;7366030;19;20045;-59
2023/08/11 10:58:37;;;;;;;9.05;7.38;;;32.90;67.10;;;;;;7367813;19;20081;-59
2023/08/11 11:01:03;;;;;;;6.57;3.97;;;33.20;66.70;;;;;;7369686;19;20596;-58
2023/08/11 11:03:30;;;;;;;6.55;5.32;;;33.10;66.40;;;;;;7369408;19;20029;-65
2023/08/11 11:06:03;;;;;;;3.78;2.20;;;33.20;67.60;;;;;;7367602;19;20500;-60
2023/08/11 11:08:29;;;;;;;7.07;2.88;;;33.30;64.10;;;;;;7372747;19;20022;-58
2023/08/11 11:10:56;;;;;;;5.00;2.50;;;33.30;64.00;;;;;;7365048;19;20262;-59
2023/08/11 11:13:22;;;;;;;9.82;3.08;;;33.60;65.50;;;;;;7363296;19;20035;-61
2023/08/11 11:15:48;;;;;;;7.18;2.50;;;33.90;65.30;;;;;;7363835;19;20374;-60
2023/08/11 11:18:15;;;;;;;5.63;2.88;;;34.20;65.90;;;;;;7368014;19;20018;-61
2023/08/11 11:20:41;;;;;;;4.85;2.50;;;34.40;65.60;;;;;;7366358;19;20127;-61
2023/08/11 11:23:07;;;;;;;5.07;2.47;;;34.20;65.20;;;;;;7364432;19;20061;-61
2023/08/11 11:25:34;;;;;;;8.13;2.78;;;33.90;63.10;;;;;;7369603;19;20018;-59
2023/08/11 11:28:00;;;;;;;5.10;2.53;;;33.20;61.70;;;;;;7370622;19;20379;-61
2023/08/11 11:30:26;;;;;;;10.65;3.58;;;33.10;62.30;;;;;;7370185;19;20022;-61
2023/08/11 11:32:53;;;;;;;4.47;2.67;;;32.90;62.60;;;;;;7366970;19;20018;-59
2023/08/11 11:35:19;;;;;;;6.32;2.88;;;32.40;61.80;;;;;;7367323;19;20022;-61
2023/08/11 11:37:46;;;;;;;7.55;2.17;;;32.40;62.40;;;;;;7368392;19;20025;-59
2023/08/11 11:40:13;;;;;;;4.88;2.40;;;32.40;63.00;;;;;;7365248;19;20019;-60
2023/08/11 11:42:39;;;;;;;5.90;2.78;;;32.20;63.10;;;;;;7368071;19;20022;-61
2023/08/11 11:45:07;;;;;;;6.28;2.85;;;32.60;63.50;;;;;;7370163;19;20097;-61
2023/08/11 11:47:34;;;;;;;8.07;3.25;;;32.90;62.10;;;;;;7366735;19;20509;-62
2023/08/11 11:50:06;;;;;;;9.30;3.58;;;33.30;62.70;;;;;;7368608;19;20373;-60
2023/08/11 11:52:33;;;;;;;9.73;6.38;;;33.60;62.60;;;;;;7366400;19;20599;-59
2023/08/11 11:55:01;;;;;;;21.90;19.67;;;33.80;61.50;;;;;;7363010;19;20483;-58
2023/08/11 11:57:27;;;;;;;6.90;5.70;;;34.00;61.20;;;;;;7363819;19;20473;-59
2023/08/11 11:59:54;;;;;;;13.73;12.27;;;33.70;61.20;;;;;;7366985;19;20613;-58
2023/08/11 12:02:20;;;;;;;6.00;2.70;;;33.90;61.00;;;;;;7369324;19;20078;-58
2023/08/11 12:04:47;;;;;;;7.13;4.13;;;34.40;61.30;;;;;;7368837;19;20018;-59
2023/08/11 12:07:34;;;;;;;6.25;3.80;;;34.40;60.60;;;;;;7370870;19;20098;-59
2023/08/11 12:10:01;;;;;;;9.02;3.30;;;34.70;59.60;;;;;;7369330;19;20014;-58
2023/08/11 12:12:28;;;;;;;8.98;4.65;;;34.60;61.30;;;;;;7368092;19;20086;-60
2023/08/11 12:15:04;;;;;;;6.30;4.75;;;34.70;59.70;;;;;;7370171;19;20014;-58
2023/08/11 12:17:33;;;;;;;6.70;3.42;;;34.60;58.30;;;;;;7366343;19;20031;-60
2023/08/11 12:20:10;;;;;;;10.32;6.00;;;34.60;59.50;;;;;;7368372;19;20023;-62
2023/08/11 12:22:36;;;;;;;6.82;3.90;;;34.70;58.90;;;;;;7366386;19;20423;-62
2023/08/11 12:25:03;;;;;;;9.30;7.75;;;34.80;57.90;;;;;;7373265;19;20054;-63
2023/08/11 12:27:29;;;;;;;9.70;6.80;;;34.60;57.30;;;;;;7372252;19;20019;-62
2023/08/11 12:29:56;;;;;;;9.57;4.57;;;34.80;57.60;;;;;;7369172;19;20719;-59
2023/08/11 12:32:22;;;;;;;7.18;5.88;;;34.90;57.90;;;;;;7360443;19;20054;-57
2023/08/11 12:34:48;;;;;;;12.48;10.90;;;34.80;57.10;;;;;;7371376;19;20035;-62
2023/08/11 12:37:14;;;;;;;7.43;4.50;;;35.10;57.70;;;;;;7373237;19;20022;-65
2023/08/11 12:39:40;;;;;;;22.52;20.17;;;35.20;57.00;;;;;;7372981;19;20021;-61